Terminal Aerodrome Forecast
Issued by NWS St Louis, MO

Home | Current Version | Previous Version | Text Only | Print | Product List | Glossary On
Versions: 1 2 3 4 5 6 7 8 9 10 11 12 13 14 15 16 17 18 19 20 21 22 23 24 25 26 27 28 29
750
FTUS43 KLSX 201120
TAFSTL
TAF
KSTL 201120Z 2012/2118 00000KT 1/4SM FG VV002
     FM201600 17005KT 1SM BR OVC003
     FM201800 16007KT P6SM OVC008
     FM211200 16007KT P6SM OVC150
     FM211600 17008KT P6SM SCT060=

USA.gov is the U.S. government's official web portal to all federal, state and local government web resources and services.